createdAt,value
2019-05-26T00:02:41.015Z,13.93
2019-05-26T00:07:43.765Z,13.38
2019-05-26T00:12:46.601Z,16.35
2019-05-26T00:17:49.269Z,13.58
2019-05-26T00:22:51.973Z,17.90
2019-05-26T00:27:54.774Z,15.10
2019-05-26T00:32:57.460Z,16.80
2019-05-26T00:38:00.281Z,17.62
2019-05-26T00:43:03.158Z,15.70
2019-05-26T00:48:06.040Z,16.57
2019-05-26T00:53:08.842Z,15.30
2019-05-26T00:58:11.505Z,21.73
2019-05-26T01:03:14.311Z,15.70
2019-05-26T01:08:16.977Z,20.50
2019-05-26T01:13:19.641Z,18.95
2019-05-26T01:18:22.306Z,24.67
2019-05-26T01:23:24.983Z,19.82
2019-05-26T01:28:27.970Z,21.20
2019-05-26T01:33:31.340Z,26.42
2019-05-26T01:38:34.610Z,26.05
2019-05-26T01:43:37.268Z,24.10
2019-05-26T01:48:39.918Z,25.40
2019-05-26T01:53:42.599Z,23.62
2019-05-26T01:58:45.355Z,26.35
2019-05-26T02:03:48.090Z,26.62
2019-05-26T02:08:50.744Z,23.67
2019-05-26T02:13:53.474Z,30.80
2019-05-26T02:18:56.227Z,30.65
2019-05-26T02:23:58.983Z,27.05
2019-05-26T02:29:01.712Z,27.00
2019-05-26T02:34:04.453Z,27.22
2019-05-26T02:39:08.058Z,30.02
2019-05-26T02:44:10.793Z,27.30
2019-05-26T02:49:13.608Z,27.95
2019-05-26T02:54:16.351Z,33.85
2019-05-26T02:59:19.550Z,24.52
2019-05-26T03:04:22.527Z,27.52
2019-05-26T03:09:28.324Z,30.92
2019-05-26T03:14:33.990Z,28.25
2019-05-26T03:19:38.692Z,27.17
2019-05-26T03:24:44.168Z,29.90
2019-05-26T03:29:47.174Z,28.20
2019-05-26T03:34:50.130Z,30.02
2019-05-26T03:39:53.139Z,25.40
2019-05-26T03:44:56.210Z,28.95
2019-05-26T03:49:58.959Z,24.43
2019-05-26T03:55:01.687Z,27.05
2019-05-26T04:00:06.497Z,26.33
2019-05-26T04:05:10.085Z,25.72
2019-05-26T04:10:14.437Z,26.77
2019-05-26T04:15:17.243Z,25.97
2019-05-26T04:20:19.987Z,26.05
2019-05-26T04:25:22.726Z,26.70
2019-05-26T04:30:25.385Z,26.52
2019-05-26T04:35:28.055Z,23.12
2019-05-26T04:40:30.846Z,32.08
2019-05-26T04:45:33.613Z,29.77
2019-05-26T04:50:36.345Z,28.57
2019-05-26T04:55:39.008Z,25.62
2019-05-26T05:00:41.751Z,30.88
2019-05-26T05:05:44.468Z,25.45
2019-05-26T05:10:47.306Z,27.90
2019-05-26T05:15:49.978Z,25.25
2019-05-26T05:20:52.645Z,24.90
2019-05-26T05:25:55.317Z,27.35
2019-05-26T05:30:58.480Z,25.32
2019-05-26T05:36:01.136Z,26.68
2019-05-26T05:41:03.952Z,23.60
2019-05-26T05:46:06.629Z,22.37
2019-05-26T05:51:09.441Z,23.83
2019-05-26T05:56:12.110Z,24.15
2019-05-26T06:01:14.784Z,21.40
2019-05-26T06:06:17.470Z,21.80
2019-05-26T06:11:20.209Z,22.22
2019-05-26T06:16:23.266Z,23.45
2019-05-26T06:21:26.020Z,23.15
2019-05-26T06:26:28.791Z,22.07
2019-05-26T06:31:31.515Z,20.23
2019-05-26T06:36:34.237Z,18.40
2019-05-26T06:41:36.979Z,19.95
2019-05-26T06:46:39.709Z,23.50
2019-05-26T06:51:42.367Z,20.92
2019-05-26T06:56:45.054Z,21.07
2019-05-26T07:01:47.823Z,19.98
2019-05-26T07:06:50.482Z,25.55
2019-05-26T07:11:59.116Z,22.87
2019-05-26T07:16:57.918Z,23.75
2019-05-26T07:22:00.648Z,23.95
2019-05-26T07:27:03.538Z,23.35
2019-05-26T07:32:06.280Z,21.97
2019-05-26T07:37:08.938Z,27.32
2019-05-26T07:42:11.702Z,27.55
2019-05-26T07:47:14.388Z,24.52
2019-05-26T07:52:17.486Z,23.22
2019-05-26T07:57:20.211Z,27.20
2019-05-26T08:02:22.957Z,25.08
2019-05-26T08:07:25.691Z,27.85
2019-05-26T08:12:30.568Z,29.55
2019-05-26T08:17:33.121Z,26.42
2019-05-26T08:22:35.801Z,28.00
2019-05-26T08:27:38.586Z,28.52
2019-05-26T08:32:41.642Z,32.30
2019-05-26T08:37:44.324Z,27.73
2019-05-26T08:42:51.382Z,26.33
2019-05-26T08:47:54.422Z,35.10
2019-05-26T08:52:57.215Z,39.65
2019-05-26T08:57:59.892Z,37.58
2019-05-26T09:03:02.645Z,33.45
2019-05-26T09:08:08.143Z,29.87
2019-05-26T09:13:09.945Z,29.95
2019-05-26T09:18:12.644Z,32.65
2019-05-26T09:23:15.413Z,29.18
2019-05-26T09:28:18.451Z,28.38
2019-05-26T09:33:21.123Z,24.43
2019-05-26T09:38:23.796Z,23.10
2019-05-26T09:43:26.483Z,24.72
2019-05-26T09:48:29.204Z,24.92
2019-05-26T09:53:31.866Z,22.95
2019-05-26T09:58:34.563Z,20.35
2019-05-26T10:03:37.267Z,15.63
2019-05-26T10:08:39.943Z,19.35
2019-05-26T10:13:42.680Z,20.52
2019-05-26T10:18:45.421Z,14.85
2019-05-26T10:23:48.077Z,16.52
2019-05-26T10:28:51.160Z,13.50
2019-05-26T10:33:56.750Z,9.95
2019-05-26T10:38:59.410Z,9.30
2019-05-26T10:44:02.144Z,7.47
2019-05-26T10:49:04.887Z,8.30
2019-05-26T10:54:07.631Z,7.05
2019-05-26T10:59:10.370Z,9.45
2019-05-26T11:04:13.101Z,9.98
2019-05-26T11:09:16.080Z,7.87
2019-05-26T11:14:18.811Z,10.05
2019-05-26T11:19:24.230Z,8.95
2019-05-26T11:24:26.902Z,8.48
2019-05-26T11:29:29.577Z,13.08
2019-05-26T11:34:32.383Z,10.03
2019-05-26T11:39:35.138Z,11.90
2019-05-26T11:44:37.877Z,11.45
2019-05-26T11:49:40.611Z,14.85
2019-05-26T11:54:43.353Z,11.65
2019-05-26T11:59:47.404Z,11.08
2019-05-26T12:04:50.381Z,10.25
2019-05-26T12:09:53.058Z,10.85
2019-05-26T12:14:55.708Z,8.88
2019-05-26T12:19:58.375Z,7.90
2019-05-26T12:25:01.044Z,7.95
2019-05-26T12:30:06.642Z,10.70
2019-05-26T12:35:09.844Z,7.15
2019-05-26T12:40:13.023Z,8.20
2019-05-26T12:45:16.521Z,8.70
2019-05-26T12:50:19.330Z,10.10
2019-05-26T12:55:22.063Z,9.05
2019-05-26T13:00:26.949Z,7.80
2019-05-26T13:05:29.682Z,8.73
2019-05-26T13:10:32.409Z,8.83
2019-05-26T13:15:35.069Z,7.67
2019-05-26T13:20:37.810Z,6.97
2019-05-26T13:25:40.787Z,9.35
2019-05-26T13:30:43.447Z,14.15
2019-05-26T13:35:46.380Z,12.03
2019-05-26T13:40:49.102Z,6.92
2019-05-26T13:45:51.854Z,9.80
2019-05-26T13:50:54.585Z,9.35
2019-05-26T13:55:57.247Z,10.28
2019-05-26T14:00:59.902Z,8.53
2019-05-26T14:06:02.753Z,8.05
2019-05-26T14:11:05.495Z,9.10
2019-05-26T14:16:08.222Z,5.97
2019-05-26T14:21:11.039Z,9.05
2019-05-26T14:26:14.068Z,7.00
2019-05-26T14:31:16.746Z,11.40
2019-05-26T14:36:19.425Z,5.40
2019-05-26T14:41:22.158Z,5.90
2019-05-26T14:46:44.245Z,6.33
2019-05-26T14:51:46.994Z,5.37
2019-05-26T14:56:49.727Z,8.55
2019-05-26T15:01:52.469Z,7.22
2019-05-26T15:06:55.202Z,8.25
2019-05-26T15:11:57.927Z,6.25
2019-05-26T15:17:00.580Z,10.65
2019-05-26T15:22:03.308Z,9.78
2019-05-26T15:27:06.056Z,5.95
2019-05-26T15:32:08.774Z,5.67
2019-05-26T15:37:12.034Z,9.60
2019-05-26T15:42:15.108Z,8.00
2019-05-26T15:47:17.773Z,7.83
2019-05-26T15:52:20.497Z,7.87
2019-05-26T15:57:23.727Z,6.05
2019-05-26T16:02:26.421Z,6.17
2019-05-26T16:07:29.145Z,5.95
2019-05-26T16:12:31.929Z,6.08
2019-05-26T16:17:34.714Z,5.20
2019-05-26T16:22:37.460Z,4.65
2019-05-26T16:27:40.237Z,5.40
2019-05-26T16:32:43.033Z,7.30
2019-05-26T16:37:45.885Z,5.62
2019-05-26T16:42:48.914Z,7.37
2019-05-26T16:47:51.641Z,8.08
2019-05-26T16:52:54.836Z,6.50
2019-05-26T16:57:57.699Z,9.53
2019-05-26T17:03:00.354Z,8.18
2019-05-26T17:08:03.436Z,9.13
2019-05-26T17:13:06.232Z,9.40
2019-05-26T17:18:08.896Z,10.20
2019-05-26T17:23:11.616Z,6.95
2019-05-26T17:28:14.294Z,9.95
2019-05-26T17:33:16.939Z,6.20
2019-05-26T17:38:19.876Z,7.62
2019-05-26T17:43:22.533Z,8.53
2019-05-26T17:48:25.214Z,7.65
2019-05-26T17:53:27.964Z,7.42
2019-05-26T17:58:30.695Z,7.28
2019-05-26T18:03:33.441Z,7.28
2019-05-26T18:08:36.812Z,6.20
2019-05-26T18:13:39.909Z,5.60
2019-05-26T18:18:42.570Z,6.35
2019-05-26T18:23:45.230Z,5.15
2019-05-26T18:28:47.902Z,8.30
2019-05-26T18:33:50.652Z,6.03
2019-05-26T18:38:53.320Z,6.45
2019-05-26T18:43:56.050Z,5.58
2019-05-26T18:48:59.106Z,6.83
2019-05-26T18:54:01.786Z,4.80
2019-05-26T18:59:05.149Z,5.25
2019-05-26T19:04:08.229Z,7.40
2019-05-26T19:09:11.323Z,7.03
2019-05-26T19:14:13.973Z,6.75
2019-05-26T19:19:16.697Z,16.20
2019-05-26T19:24:20.145Z,5.90
2019-05-26T19:29:22.813Z,6.58
2019-05-26T19:34:25.484Z,5.90
2019-05-26T19:39:28.215Z,4.92
2019-05-26T19:44:31.220Z,3.60
2019-05-26T19:49:34.237Z,4.55
2019-05-26T19:54:36.955Z,5.58
2019-05-26T19:59:39.624Z,8.90
2019-05-26T20:04:42.290Z,4.50
2019-05-26T20:09:45.035Z,3.85
2019-05-26T20:14:47.715Z,3.52
2019-05-26T20:19:50.450Z,2.25
2019-05-26T20:24:53.185Z,3.87
2019-05-26T20:29:55.849Z,4.15
2019-05-26T20:34:58.500Z,2.87
2019-05-26T20:40:01.172Z,3.80
2019-05-26T20:45:06.442Z,5.85
2019-05-26T20:50:10.355Z,3.47
2019-05-26T20:55:14.092Z,4.55
2019-05-26T21:00:17.591Z,4.65
2019-05-26T21:05:20.522Z,5.53
2019-05-26T21:10:23.352Z,4.10
2019-05-26T21:15:26.016Z,4.87
2019-05-26T21:20:28.670Z,6.12
2019-05-26T21:25:31.331Z,5.65
2019-05-26T21:30:33.998Z,2.80
2019-05-26T21:35:36.729Z,4.58
2019-05-26T21:40:40.131Z,4.15
2019-05-26T21:45:42.874Z,4.20
2019-05-26T21:50:45.530Z,2.12
2019-05-26T21:55:48.189Z,1.70
2019-05-26T22:00:51.728Z,2.25
2019-05-26T22:05:54.390Z,3.02
2019-05-26T22:10:57.115Z,2.87
2019-05-26T22:15:59.842Z,3.15
2019-05-26T22:21:02.574Z,2.62
2019-05-26T22:26:05.241Z,3.42
2019-05-26T22:31:08.240Z,4.17
2019-05-26T22:36:10.897Z,3.58
2019-05-26T22:41:13.551Z,6.50
2019-05-26T22:46:16.219Z,4.33
2019-05-26T22:51:19.328Z,5.15
2019-05-26T22:56:22.053Z,7.15
2019-05-26T23:01:24.794Z,6.50
2019-05-26T23:06:27.453Z,7.00
2019-05-26T23:11:30.122Z,7.40
2019-05-26T23:16:32.792Z,8.05
2019-05-26T23:21:35.523Z,8.15
2019-05-26T23:26:38.175Z,9.78
2019-05-26T23:31:40.840Z,9.13
2019-05-26T23:36:43.774Z,8.05
2019-05-26T23:41:46.435Z,6.12
2019-05-26T23:46:49.167Z,4.70
2019-05-26T23:51:51.822Z,4.47
2019-05-26T23:56:54.550Z,4.67
